createdAt,value
2022-08-01T00:00:15.786Z,99.90
2022-08-01T00:02:42.991Z,99.90
2022-08-01T00:05:12.007Z,99.90
2022-08-01T00:07:39.694Z,99.90
2022-08-01T00:10:10.739Z,99.90
2022-08-01T00:12:37.804Z,99.90
2022-08-01T00:15:06.608Z,99.90
2022-08-01T00:17:33.822Z,99.90
2022-08-01T00:20:01.206Z,99.90
2022-08-01T00:22:28.227Z,99.90
2022-08-01T00:24:55.145Z,99.90
2022-08-01T00:27:22.141Z,99.90
2022-08-01T00:30:10.686Z,99.90
2022-08-01T00:32:36.202Z,99.90
2022-08-01T00:35:03.161Z,99.90
2022-08-01T00:37:30.226Z,99.90
2022-08-01T00:39:57.191Z,99.90
2022-08-01T00:42:24.236Z,99.90
2022-08-01T00:44:51.214Z,99.90
2022-08-01T00:47:18.359Z,99.90
2022-08-01T00:49:45.466Z,99.90
2022-08-01T00:52:12.708Z,99.90
2022-08-01T00:54:40.459Z,99.90
2022-08-01T00:57:10.174Z,99.90
2022-08-01T00:59:40.011Z,99.90
2022-08-01T01:02:08.552Z,99.90
2022-08-01T01:04:46.581Z,99.90
2022-08-01T01:07:17.960Z,99.90
2022-08-01T01:10:01.326Z,99.90
2022-08-01T01:12:38.496Z,99.90
2022-08-01T01:15:16.689Z,99.90
2022-08-01T01:18:03.017Z,99.90
2022-08-01T01:20:38.032Z,99.90
2022-08-01T01:23:41.171Z,99.90
2022-08-01T01:26:23.255Z,99.90
2022-08-01T01:29:08.859Z,99.90
2022-08-01T01:31:45.633Z,99.90
2022-08-01T01:34:14.403Z,99.90
2022-08-01T01:36:42.937Z,99.90
2022-08-01T01:39:10.292Z,99.90
2022-08-01T01:41:39.762Z,99.90
2022-08-01T01:44:07.634Z,99.90
2022-08-01T01:46:36.691Z,99.90
2022-08-01T01:49:04.444Z,99.90
2022-08-01T01:51:32.687Z,99.90
2022-08-01T01:54:02.156Z,99.90
2022-08-01T01:56:31.138Z,99.90
2022-08-01T01:59:02.386Z,99.90
2022-08-01T02:01:58.119Z,99.90
2022-08-01T02:04:21.037Z,99.90
2022-08-01T02:06:50.169Z,99.90
2022-08-01T02:09:22.525Z,99.90
2022-08-01T02:12:07.323Z,99.90
2022-08-01T02:14:36.855Z,99.90
2022-08-01T02:17:08.505Z,99.90
2022-08-01T02:19:38.522Z,99.90
2022-08-01T02:22:36.792Z,99.90
2022-08-01T02:25:12.281Z,99.90
2022-08-01T02:27:46.755Z,99.90
2022-08-01T02:30:15.223Z,99.90
2022-08-01T02:32:52.419Z,99.90
2022-08-01T02:35:27.920Z,99.90
2022-08-01T02:37:57.913Z,99.90
2022-08-01T02:40:27.598Z,99.90
2022-08-01T02:42:58.080Z,99.90
2022-08-01T02:45:27.568Z,99.90
2022-08-01T02:48:00.193Z,99.90
2022-08-01T02:50:29.497Z,99.90
2022-08-01T02:52:58.358Z,99.90
2022-08-01T02:55:26.625Z,99.90
2022-08-01T02:57:58.435Z,99.90
2022-08-01T03:00:30.732Z,99.90
2022-08-01T03:03:00.371Z,99.90
2022-08-01T03:05:28.238Z,99.90
2022-08-01T03:08:02.585Z,99.90
2022-08-01T03:10:33.064Z,99.90
2022-08-01T03:13:02.199Z,99.90
2022-08-01T03:15:33.434Z,99.90
2022-08-01T03:18:02.290Z,99.90
2022-08-01T03:20:30.653Z,99.90
2022-08-01T03:22:59.887Z,99.90
2022-08-01T03:25:28.419Z,99.90
2022-08-01T03:28:02.608Z,99.90
2022-08-01T03:30:32.117Z,99.90
2022-08-01T03:32:59.756Z,99.90
2022-08-01T03:35:49.609Z,99.90
2022-08-01T03:38:22.207Z,99.90
2022-08-01T03:40:54.307Z,99.90
2022-08-01T03:43:34.318Z,99.90
2022-08-01T03:46:09.128Z,99.90
2022-08-01T03:48:41.740Z,99.90
2022-08-01T03:51:09.930Z,99.90
2022-08-01T03:53:40.776Z,99.90
2022-08-01T03:56:11.296Z,99.90
2022-08-01T03:58:40.796Z,99.90
2022-08-01T04:01:15.549Z,99.90
2022-08-01T04:03:44.329Z,99.90
2022-08-01T04:06:11.741Z,99.90
2022-08-01T04:08:40.189Z,99.90
2022-08-01T04:11:09.582Z,99.90
2022-08-01T04:13:38.546Z,99.90
2022-08-01T04:16:05.967Z,99.90
2022-08-01T04:18:33.302Z,99.90
2022-08-01T04:21:00.403Z,99.90
2022-08-01T04:23:33.844Z,99.90
2022-08-01T04:26:05.151Z,99.90
2022-08-01T04:28:35.877Z,99.90
2022-08-01T04:31:05.814Z,99.90
2022-08-01T04:33:37.565Z,99.90
2022-08-01T04:36:07.177Z,99.90
2022-08-01T04:38:37.842Z,99.90
2022-08-01T04:41:08.723Z,99.90
2022-08-01T04:43:40.569Z,99.90
2022-08-01T04:46:08.666Z,99.90
2022-08-01T04:48:39.549Z,99.90
2022-08-01T04:51:16.940Z,99.90
2022-08-01T04:53:45.137Z,99.90
2022-08-01T04:56:14.212Z,99.90
2022-08-01T04:58:42.210Z,99.90
2022-08-01T05:01:10.346Z,99.90
2022-08-01T05:03:39.147Z,99.90
2022-08-01T05:06:06.675Z,99.90
2022-08-01T05:08:33.834Z,99.90
2022-08-01T05:11:02.321Z,99.90
2022-08-01T05:13:29.380Z,99.90
2022-08-01T05:15:56.558Z,99.90
2022-08-01T05:18:26.230Z,99.90
2022-08-01T05:20:56.040Z,99.90
2022-08-01T05:23:42.634Z,99.90
2022-08-01T05:26:11.192Z,99.90
2022-08-01T05:28:38.163Z,99.90
2022-08-01T05:31:05.561Z,99.90
2022-08-01T05:33:32.593Z,99.90
2022-08-01T05:36:01.311Z,99.90
2022-08-01T05:38:28.290Z,99.90
2022-08-01T05:40:55.284Z,99.90
2022-08-01T05:43:26.783Z,99.90
2022-08-01T05:45:55.795Z,99.90
2022-08-01T05:48:22.823Z,99.90
2022-08-01T05:50:52.190Z,99.90
2022-08-01T05:53:21.039Z,99.90
2022-08-01T05:55:48.123Z,99.90
2022-08-01T05:58:15.260Z,99.90
2022-08-01T06:00:42.343Z,99.90
2022-08-01T06:03:09.660Z,99.90
2022-08-01T06:05:36.861Z,99.90
2022-08-01T06:08:04.552Z,99.90
2022-08-01T06:10:31.566Z,99.90
2022-08-01T06:12:58.960Z,99.90
2022-08-01T06:15:26.260Z,99.90
2022-08-01T06:17:53.368Z,99.90
2022-08-01T06:20:20.668Z,99.90
2022-08-01T06:22:52.450Z,99.90
2022-08-01T06:25:21.377Z,99.90
2022-08-01T06:27:49.130Z,99.90
2022-08-01T06:30:22.624Z,99.90
2022-08-01T06:32:50.403Z,99.90
2022-08-01T06:35:23.090Z,99.90
2022-08-01T06:37:52.825Z,99.90
2022-08-01T06:40:20.690Z,99.90
2022-08-01T06:42:56.797Z,99.90
2022-08-01T06:45:28.310Z,99.90
2022-08-01T06:48:04.107Z,99.90
2022-08-01T06:50:37.730Z,99.90
2022-08-01T06:53:11.945Z,99.90
2022-08-01T06:55:42.794Z,99.90
2022-08-01T06:58:15.897Z,99.90
2022-08-01T07:00:52.596Z,99.90
2022-08-01T07:03:27.739Z,99.90
2022-08-01T07:06:18.180Z,99.90
2022-08-01T07:08:54.448Z,99.90
2022-08-01T07:11:27.777Z,99.90
2022-08-01T07:13:57.554Z,99.90
2022-08-01T07:16:30.857Z,99.90
2022-08-01T07:18:57.950Z,99.90
2022-08-01T07:21:40.613Z,99.90
2022-08-01T07:24:14.492Z,99.90
2022-08-01T07:26:53.571Z,99.90
2022-08-01T07:29:28.141Z,99.90
2022-08-01T07:31:56.782Z,99.90
2022-08-01T07:34:24.613Z,99.90
2022-08-01T07:36:52.494Z,99.90
2022-08-01T07:39:20.065Z,99.90
2022-08-01T07:42:06.159Z,99.90
2022-08-01T07:44:33.997Z,99.90
2022-08-01T07:47:01.037Z,99.90
2022-08-01T07:49:28.255Z,99.90
2022-08-01T07:52:13.705Z,99.90
2022-08-01T07:54:40.796Z,99.90
2022-08-01T07:57:08.230Z,99.90
2022-08-01T07:59:35.440Z,99.90
2022-08-01T08:02:02.827Z,99.90
2022-08-01T08:04:30.097Z,99.90
2022-08-01T08:06:57.064Z,99.90
2022-08-01T08:09:24.180Z,99.90
2022-08-01T08:11:51.197Z,99.90
2022-08-01T08:14:18.251Z,99.90
2022-08-01T08:16:45.445Z,99.90
2022-08-01T08:19:13.122Z,99.90
2022-08-01T08:21:40.131Z,99.90
2022-08-01T08:24:26.514Z,99.90
2022-08-01T08:26:59.427Z,99.90
2022-08-01T08:29:28.290Z,99.90
2022-08-01T08:31:58.715Z,99.90
2022-08-01T08:34:28.171Z,99.90
2022-08-01T08:36:57.235Z,99.90
2022-08-01T08:39:26.473Z,99.90
2022-08-01T08:41:53.603Z,99.90
2022-08-01T08:44:23.929Z,99.90
2022-08-01T08:46:52.478Z,99.90
2022-08-01T08:49:26.793Z,99.90
2022-08-01T08:51:58.694Z,99.90
2022-08-01T08:54:30.824Z,99.90
2022-08-01T08:57:00.298Z,99.90
2022-08-01T08:59:28.590Z,99.90
2022-08-01T09:01:55.919Z,99.90
2022-08-01T09:04:26.646Z,99.90
2022-08-01T09:06:54.850Z,99.90
2022-08-01T09:09:21.892Z,99.90
2022-08-01T09:11:56.758Z,99.90
2022-08-01T09:14:27.223Z,99.90
2022-08-01T09:17:03.764Z,99.90
2022-08-01T09:19:39.106Z,99.90
2022-08-01T09:22:11.276Z,99.90
2022-08-01T09:24:40.361Z,99.90
2022-08-01T09:27:22.792Z,99.90
2022-08-01T09:30:01.900Z,99.90
2022-08-01T09:32:35.936Z,99.90
2022-08-01T09:35:31.578Z,99.90
2022-08-01T09:38:24.612Z,99.90
2022-08-01T09:40:58.923Z,99.90
2022-08-01T09:43:31.695Z,99.90
2022-08-01T09:46:00.178Z,99.90
2022-08-01T09:48:29.823Z,99.20
2022-08-01T09:51:04.661Z,99.40
2022-08-01T09:53:51.095Z,97.80
2022-08-01T09:56:21.696Z,98.40
2022-08-01T09:59:00.325Z,99.00
2022-08-01T10:01:37.144Z,99.50
2022-08-01T10:04:17.402Z,97.20
2022-08-01T10:06:50.605Z,97.10
2022-08-01T10:09:39.961Z,97.30
2022-08-01T10:12:09.212Z,98.50
2022-08-01T10:14:46.245Z,97.20
2022-08-01T10:17:18.090Z,96.10
2022-08-01T10:19:46.434Z,97.10
2022-08-01T10:22:17.683Z,97.40
2022-08-01T10:24:48.891Z,97.40
2022-08-01T10:27:24.357Z,98.20
2022-08-01T10:30:14.011Z,97.10
2022-08-01T10:32:50.618Z,97.10
2022-08-01T10:35:45.733Z,97.20
2022-08-01T10:38:13.479Z,96.30
2022-08-01T10:40:43.027Z,96.40
2022-08-01T10:43:21.240Z,95.80
2022-08-01T10:45:48.984Z,94.30
2022-08-01T10:48:23.517Z,93.60
2022-08-01T10:50:55.098Z,94.30
2022-08-01T10:53:31.716Z,96.60
2022-08-01T10:56:15.060Z,96.70
2022-08-01T10:58:45.436Z,97.40
2022-08-01T11:01:33.384Z,96.90
2022-08-01T11:04:15.747Z,96.20
2022-08-01T11:06:53.632Z,95.50
2022-08-01T11:10:04.756Z,95.60
2022-08-01T11:12:44.216Z,96.00
2022-08-01T11:15:11.297Z,97.20
2022-08-01T11:17:45.258Z,95.50
2022-08-01T11:20:17.301Z,95.30
2022-08-01T11:23:03.583Z,93.90
2022-08-01T11:26:06.673Z,94.40
2022-08-01T11:28:34.800Z,93.80
2022-08-01T11:31:10.951Z,92.20
2022-08-01T11:33:48.826Z,92.00
2022-08-01T11:36:36.897Z,90.50
2022-08-01T11:39:13.460Z,90.10
2022-08-01T11:41:42.360Z,85.10
2022-08-01T11:44:18.404Z,86.20
2022-08-01T11:46:51.692Z,85.70
2022-08-01T11:49:38.567Z,86.40
2022-08-01T11:52:12.409Z,85.80
2022-08-01T11:54:40.555Z,85.70
2022-08-01T11:57:38.325Z,86.90
2022-08-01T12:00:15.006Z,84.20
2022-08-01T12:02:42.747Z,84.20
2022-08-01T12:05:15.536Z,85.10
2022-08-01T12:07:44.316Z,82.30
2022-08-01T12:10:19.499Z,82.90
2022-08-01T12:12:55.078Z,82.00
2022-08-01T12:15:25.111Z,79.80
2022-08-01T12:17:59.540Z,80.30
2022-08-01T12:20:32.742Z,80.70
2022-08-01T12:23:09.075Z,81.60
2022-08-01T12:25:37.391Z,84.30
2022-08-01T12:28:06.512Z,83.60
2022-08-01T12:30:36.577Z,85.30
2022-08-01T12:33:11.561Z,81.90
2022-08-01T12:35:41.855Z,85.30
2022-08-01T12:38:24.093Z,81.90
2022-08-01T12:40:53.119Z,82.30
2022-08-01T12:43:28.208Z,81.60
2022-08-01T12:45:58.871Z,81.00
2022-08-01T12:48:27.309Z,80.50
2022-08-01T12:50:55.103Z,81.40
2022-08-01T12:53:22.727Z,83.60
2022-08-01T12:55:59.221Z,81.70
2022-08-01T12:58:34.395Z,80.40
2022-08-01T13:01:10.857Z,77.60
2022-08-01T13:03:38.484Z,80.30
2022-08-01T13:06:17.467Z,79.60
2022-08-01T13:08:46.079Z,81.20
2022-08-01T13:11:15.801Z,77.80
2022-08-01T13:13:48.970Z,77.30
2022-08-01T13:16:30.396Z,77.00
2022-08-01T13:19:01.783Z,78.20
2022-08-01T13:21:52.061Z,78.70
2022-08-01T13:24:28.139Z,80.30
2022-08-01T13:27:02.262Z,78.30
2022-08-01T13:29:34.219Z,78.50
2022-08-01T13:32:28.975Z,79.30
2022-08-01T13:35:23.887Z,81.10
2022-08-01T13:37:51.408Z,79.00
2022-08-01T13:40:27.381Z,81.60
2022-08-01T13:42:56.703Z,80.00
2022-08-01T13:45:24.405Z,74.90
2022-08-01T13:48:11.673Z,77.20
2022-08-01T13:50:40.296Z,76.70
2022-08-01T13:53:08.240Z,77.60
2022-08-01T13:55:35.730Z,77.00
2022-08-01T13:58:03.864Z,77.60
2022-08-01T14:00:31.147Z,76.20
2022-08-01T14:02:58.120Z,75.70
2022-08-01T14:05:25.161Z,75.20
2022-08-01T14:07:56.480Z,76.70
2022-08-01T14:10:29.240Z,76.50
2022-08-01T14:12:59.701Z,76.90
2022-08-01T14:15:37.473Z,79.60
2022-08-01T14:18:09.632Z,80.20
2022-08-01T14:20:38.805Z,80.40
2022-08-01T14:23:08.530Z,81.00
2022-08-01T14:26:00.560Z,77.90
2022-08-01T14:28:29.183Z,76.70
2022-08-01T14:30:57.156Z,76.20
2022-08-01T14:33:24.351Z,74.80
2022-08-01T14:36:05.089Z,78.80
2022-08-01T14:38:38.417Z,80.90
2022-08-01T14:41:05.481Z,80.10
2022-08-01T14:43:35.276Z,77.90
2022-08-01T14:46:04.691Z,77.50
2022-08-01T14:48:32.703Z,77.60
2022-08-01T14:51:03.566Z,77.10
2022-08-01T14:53:31.413Z,77.30
2022-08-01T14:56:01.756Z,77.40
2022-08-01T14:58:28.683Z,77.70
2022-08-01T15:00:58.863Z,76.30
2022-08-01T15:03:26.878Z,78.00
2022-08-01T15:05:53.853Z,76.80
2022-08-01T15:08:20.929Z,77.80
2022-08-01T15:10:47.957Z,76.50
2022-08-01T15:13:15.006Z,78.00
2022-08-01T15:15:42.014Z,79.40
2022-08-01T15:18:09.146Z,80.10
2022-08-01T15:20:36.086Z,79.10
2022-08-01T15:23:03.036Z,78.20
2022-08-01T15:25:40.311Z,75.80
2022-08-01T15:28:10.640Z,74.50
2022-08-01T15:30:38.239Z,71.90
2022-08-01T15:33:05.861Z,74.00
2022-08-01T15:35:33.321Z,74.20
2022-08-01T15:38:00.561Z,74.40
2022-08-01T15:40:29.532Z,75.50
2022-08-01T15:43:00.231Z,78.70
2022-08-01T15:48:14.740Z,80.30
2022-08-01T15:50:41.808Z,82.40
2022-08-01T15:53:08.881Z,84.70
2022-08-01T15:55:39.804Z,85.00
2022-08-01T15:58:07.368Z,83.80
2022-08-01T16:00:38.804Z,81.50
2022-08-01T16:03:07.904Z,81.90
2022-08-01T16:05:42.549Z,83.30
2022-08-01T16:08:11.997Z,83.50
2022-08-01T16:10:39.320Z,82.10
2022-08-01T16:13:07.548Z,81.40
2022-08-01T16:15:37.278Z,82.00
2022-08-01T16:18:09.204Z,84.10
2022-08-01T16:20:38.288Z,82.10
2022-08-01T16:23:07.571Z,84.40
2022-08-01T16:25:34.908Z,84.50
2022-08-01T16:28:02.174Z,84.90
2022-08-01T16:30:29.185Z,84.50
2022-08-01T16:33:00.108Z,83.40
2022-08-01T16:35:35.891Z,84.00
2022-08-01T16:38:04.918Z,84.40
2022-08-01T16:40:46.318Z,84.50
2022-08-01T16:43:16.098Z,87.10
2022-08-01T16:45:43.824Z,85.50
2022-08-01T16:48:16.180Z,87.30
2022-08-01T16:50:43.608Z,86.40
2022-08-01T16:53:12.001Z,86.40
2022-08-01T16:55:42.603Z,85.50
2022-08-01T16:58:19.791Z,86.00
2022-08-01T17:00:57.086Z,86.20
2022-08-01T17:03:52.721Z,87.00
2022-08-01T17:06:13.173Z,87.30
2022-08-01T17:08:46.484Z,88.40
2022-08-01T17:11:14.932Z,89.80
2022-08-01T17:13:42.387Z,89.60
2022-08-01T17:16:10.060Z,90.50
2022-08-01T17:18:37.303Z,91.20
2022-08-01T17:21:04.439Z,92.20
2022-08-01T17:23:32.009Z,91.80
2022-08-01T17:25:59.699Z,92.30
2022-08-01T17:28:27.495Z,92.60
2022-08-01T17:30:54.524Z,92.80
2022-08-01T17:33:21.574Z,93.00
2022-08-01T17:35:48.843Z,93.50
2022-08-01T17:38:16.045Z,93.60
2022-08-01T17:40:44.372Z,93.80
2022-08-01T17:43:11.480Z,93.70
2022-08-01T17:45:50.936Z,94.10
2022-08-01T17:48:19.449Z,94.30
2022-08-01T17:50:47.671Z,95.00
2022-08-01T17:53:21.192Z,95.00
2022-08-01T17:55:54.422Z,94.90
2022-08-01T17:58:45.041Z,95.40
2022-08-01T18:01:16.930Z,95.20
2022-08-01T18:03:44.547Z,95.20
2022-08-01T18:06:14.158Z,95.40
2022-08-01T18:08:42.063Z,95.50
2022-08-01T18:11:09.568Z,96.60
2022-08-01T18:13:40.738Z,96.60
2022-08-01T18:16:11.235Z,96.80
2022-08-01T18:18:39.238Z,97.30
2022-08-01T18:21:07.297Z,98.60
2022-08-01T18:23:35.243Z,98.10
2022-08-01T18:26:06.902Z,98.20
2022-08-01T18:28:41.664Z,99.00
2022-08-01T18:31:11.789Z,98.90
2022-08-01T18:33:39.248Z,98.80
2022-08-01T18:36:06.515Z,99.20
2022-08-01T18:38:38.952Z,98.80
2022-08-01T18:41:12.095Z,98.90
2022-08-01T18:43:39.180Z,99.10
2022-08-01T18:46:06.530Z,99.10
2022-08-01T18:48:33.524Z,99.80
2022-08-01T18:51:00.929Z,99.80
2022-08-01T18:53:28.367Z,99.90
2022-08-01T18:55:55.549Z,99.80
2022-08-01T18:58:22.582Z,99.40
2022-08-01T19:00:49.726Z,99.10
2022-08-01T19:03:16.916Z,99.90
2022-08-01T19:05:43.915Z,99.90
2022-08-01T19:08:11.687Z,99.90
2022-08-01T19:10:42.883Z,99.90
2022-08-01T19:13:10.062Z,99.90
2022-08-01T19:15:37.134Z,99.90
2022-08-01T19:18:04.563Z,99.90
2022-08-01T19:20:31.787Z,99.90
2022-08-01T19:22:59.015Z,99.90
2022-08-01T19:25:26.580Z,99.90
2022-08-01T19:27:56.364Z,99.90
2022-08-01T19:30:23.701Z,99.90
2022-08-01T19:32:52.349Z,99.90
2022-08-01T19:35:19.914Z,99.90
2022-08-01T19:37:52.632Z,99.90
2022-08-01T19:40:27.099Z,99.90
2022-08-01T19:42:56.428Z,99.90
2022-08-01T19:45:24.701Z,99.90
2022-08-01T19:47:56.853Z,99.90
2022-08-01T19:50:29.156Z,99.90
2022-08-01T19:52:57.633Z,99.90
2022-08-01T19:55:27.050Z,99.90
2022-08-01T19:58:24.619Z,99.90
2022-08-01T20:00:44.111Z,99.90
2022-08-01T20:03:14.985Z,99.90
2022-08-01T20:05:42.496Z,99.90
2022-08-01T20:08:09.872Z,99.90
2022-08-01T20:10:38.465Z,99.90
2022-08-01T20:13:06.668Z,99.90
2022-08-01T20:15:33.686Z,99.90
2022-08-01T20:18:01.159Z,99.90
2022-08-01T20:20:28.297Z,99.90
2022-08-01T20:22:57.629Z,99.90
2022-08-01T20:25:33.535Z,99.90
2022-08-01T20:28:10.462Z,99.90
2022-08-01T20:30:39.386Z,99.90
2022-08-01T20:33:08.514Z,99.90
2022-08-01T20:35:51.092Z,99.90
2022-08-01T20:38:27.411Z,99.90
2022-08-01T20:40:58.800Z,99.90
2022-08-01T20:43:27.808Z,99.90
2022-08-01T20:45:56.352Z,99.90
2022-08-01T20:48:26.707Z,99.90
2022-08-01T20:51:15.729Z,99.90
2022-08-01T20:53:46.869Z,99.90
2022-08-01T20:56:20.933Z,99.90
2022-08-01T20:59:10.176Z,99.90
2022-08-01T21:01:49.642Z,99.90
2022-08-01T21:04:31.568Z,99.90
2022-08-01T21:07:03.715Z,99.90
2022-08-01T21:09:39.150Z,99.90
2022-08-01T21:12:11.959Z,99.90
2022-08-01T21:14:50.468Z,99.90
2022-08-01T21:17:34.083Z,99.90
2022-08-01T21:20:07.526Z,99.90
2022-08-01T21:22:58.638Z,99.90
2022-08-01T21:25:31.250Z,99.90
2022-08-01T21:28:00.184Z,99.90
2022-08-01T21:30:29.733Z,99.90
2022-08-01T21:32:57.435Z,99.90
2022-08-01T21:35:26.350Z,99.90
2022-08-01T21:37:54.042Z,99.90
2022-08-01T21:40:23.209Z,99.90
2022-08-01T21:42:52.969Z,99.90
2022-08-01T21:45:22.867Z,99.90
2022-08-01T21:47:50.872Z,99.90
2022-08-01T21:50:17.996Z,99.90
2022-08-01T21:52:53.340Z,99.90
2022-08-01T21:55:36.578Z,99.90
2022-08-01T21:58:16.894Z,99.90
2022-08-01T22:00:51.189Z,99.90
2022-08-01T22:03:46.490Z,99.90
2022-08-01T22:06:16.069Z,99.90
2022-08-01T22:08:51.836Z,99.90
2022-08-01T22:11:26.013Z,99.90
2022-08-01T22:13:55.169Z,99.90
2022-08-01T22:16:26.404Z,99.90
2022-08-01T22:18:54.165Z,99.90
2022-08-01T22:21:21.502Z,99.90
2022-08-01T22:23:52.314Z,99.90
2022-08-01T22:26:25.744Z,99.90
2022-08-01T22:28:55.857Z,99.90
2022-08-01T22:31:22.866Z,99.90
2022-08-01T22:33:50.512Z,99.90
2022-08-01T22:36:17.644Z,99.90
2022-08-01T22:38:44.672Z,99.90
2022-08-01T22:41:17.536Z,99.90
2022-08-01T22:43:50.544Z,99.90
2022-08-01T22:46:36.541Z,99.90
2022-08-01T22:49:23.539Z,99.90
2022-08-01T22:52:03.147Z,99.90
2022-08-01T22:54:37.136Z,99.90
2022-08-01T22:57:10.557Z,99.90
2022-08-01T23:00:00.164Z,99.90
2022-08-01T23:02:30.877Z,99.90
2022-08-01T23:05:04.953Z,99.90
2022-08-01T23:07:43.887Z,99.90
2022-08-01T23:10:10.940Z,99.90
2022-08-01T23:12:39.654Z,99.90
2022-08-01T23:15:08.158Z,99.90
2022-08-01T23:17:35.756Z,99.90
2022-08-01T23:20:06.974Z,99.90
2022-08-01T23:22:36.350Z,99.90
2022-08-01T23:25:10.836Z,99.90
2022-08-01T23:27:51.748Z,99.90
2022-08-01T23:30:32.930Z,99.90
2022-08-01T23:33:00.287Z,99.90
2022-08-01T23:35:27.904Z,99.90
2022-08-01T23:37:58.773Z,99.90
2022-08-01T23:40:32.262Z,99.90
2022-08-01T23:43:00.734Z,99.90
2022-08-01T23:45:28.447Z,99.90
2022-08-01T23:48:15.514Z,99.90
2022-08-01T23:50:48.418Z,99.90
2022-08-01T23:53:15.585Z,99.90
2022-08-01T23:55:43.289Z,99.90
2022-08-01T23:58:11.742Z,99.90
